createdAt,value
2022-12-18T00:00:43.113Z,6.28
2022-12-18T00:02:16.503Z,6.40
2022-12-18T00:03:49.922Z,6.13
2022-12-18T00:05:23.632Z,4.63
2022-12-18T00:06:56.213Z,5.80
2022-12-18T00:08:30.217Z,7.40
2022-12-18T00:10:03.455Z,4.63
2022-12-18T00:11:37.041Z,4.78
2022-12-18T00:13:10.591Z,4.78
2022-12-18T00:14:45.301Z,4.40
2022-12-18T00:16:21.929Z,4.82
2022-12-18T00:17:55.176Z,3.08
2022-12-18T00:19:28.799Z,4.60
2022-12-18T00:21:02.306Z,4.47
2022-12-18T00:22:35.433Z,3.42
2022-12-18T00:24:09.063Z,3.97
2022-12-18T00:25:42.370Z,3.30
2022-12-18T00:27:15.457Z,5.25
2022-12-18T00:28:49.632Z,3.35
2022-12-18T00:30:24.276Z,4.55
2022-12-18T00:31:57.606Z,6.07
2022-12-18T00:33:30.412Z,3.28
2022-12-18T00:35:03.853Z,4.15
2022-12-18T00:36:37.143Z,3.67
2022-12-18T00:38:10.494Z,1.83
2022-12-18T00:39:43.800Z,3.47
2022-12-18T00:41:38.491Z,4.10
2022-12-18T00:43:10.875Z,4.10
2022-12-18T00:44:44.269Z,3.58
2022-12-18T00:46:17.902Z,6.45
2022-12-18T00:47:51.155Z,2.75
2022-12-18T00:49:24.457Z,3.30
2022-12-18T00:50:58.327Z,5.65
2022-12-18T00:52:31.610Z,2.92
2022-12-18T00:54:04.158Z,3.38
2022-12-18T00:55:39.432Z,3.72
2022-12-18T00:57:12.709Z,3.58
2022-12-18T00:58:45.898Z,4.05
2022-12-18T01:00:19.351Z,3.42
2022-12-18T01:01:54.077Z,5.57
2022-12-18T01:03:27.377Z,3.97
2022-12-18T01:05:00.580Z,3.38
2022-12-18T01:06:34.228Z,2.47
2022-12-18T01:08:06.725Z,5.13
2022-12-18T01:09:39.951Z,4.43
2022-12-18T01:11:21.653Z,3.33
2022-12-18T01:12:54.226Z,2.47
2022-12-18T01:14:27.337Z,3.42
2022-12-18T01:15:59.970Z,4.30
2022-12-18T01:17:34.630Z,4.13
2022-12-18T01:19:08.126Z,3.22
2022-12-18T01:20:40.243Z,3.08
2022-12-18T01:22:13.487Z,3.90
2022-12-18T01:23:46.048Z,3.38
2022-12-18T01:25:19.304Z,3.45
2022-12-18T01:26:53.078Z,3.92
2022-12-18T01:28:26.145Z,2.50
2022-12-18T01:29:59.262Z,3.50
2022-12-18T01:31:35.248Z,6.43
2022-12-18T01:33:09.668Z,2.40
2022-12-18T01:34:42.933Z,3.20
2022-12-18T01:36:22.416Z,3.22
2022-12-18T01:37:56.854Z,2.63
2022-12-18T01:39:30.093Z,2.80
2022-12-18T01:41:03.797Z,2.00
2022-12-18T01:42:37.126Z,3.25
2022-12-18T01:44:53.691Z,3.08
2022-12-18T01:46:29.093Z,2.47
2022-12-18T01:48:07.428Z,2.13
2022-12-18T01:49:41.026Z,4.55
2022-12-18T01:51:14.668Z,2.55
2022-12-18T01:52:52.472Z,2.97
2022-12-18T01:54:25.769Z,4.40
2022-12-18T01:56:00.739Z,3.35
2022-12-18T01:57:33.814Z,3.22
2022-12-18T01:59:12.132Z,2.60
2022-12-18T02:00:44.594Z,2.22
2022-12-18T02:02:19.714Z,2.95
2022-12-18T02:03:54.440Z,3.38
2022-12-18T02:05:46.019Z,3.17
2022-12-18T02:07:36.243Z,4.30
2022-12-18T02:09:16.781Z,2.67
2022-12-18T02:11:05.929Z,2.65
2022-12-18T02:12:50.045Z,3.95
2022-12-18T02:14:40.294Z,3.05
2022-12-18T02:16:26.517Z,1.75
2022-12-18T02:18:07.944Z,2.17
2022-12-18T02:20:14.867Z,2.53
2022-12-18T02:21:59.047Z,2.22
2022-12-18T02:23:51.957Z,3.38
2022-12-18T02:26:01.875Z,2.58
2022-12-18T02:27:39.082Z,2.90
2022-12-18T02:29:18.270Z,2.58
2022-12-18T02:30:57.453Z,4.22
2022-12-18T02:32:39.466Z,3.88
2022-12-18T02:34:15.390Z,3.72
2022-12-18T02:35:50.954Z,5.00
2022-12-18T02:37:25.125Z,3.40
2022-12-18T02:39:01.336Z,4.00
2022-12-18T02:42:09.634Z,2.78
2022-12-18T02:43:47.078Z,2.42
2022-12-18T02:45:23.307Z,4.43
2022-12-18T02:46:58.601Z,3.10
2022-12-18T02:48:35.696Z,3.20
2022-12-18T02:50:23.754Z,3.22
2022-12-18T02:52:11.921Z,3.30
2022-12-18T02:53:53.199Z,3.40
2022-12-18T02:55:47.457Z,2.72
2022-12-18T02:57:35.328Z,3.60
2022-12-18T02:59:17.733Z,2.65
2022-12-18T03:01:05.664Z,2.60
2022-12-18T03:02:47.279Z,4.55
2022-12-18T03:04:28.811Z,4.13
2022-12-18T03:06:10.619Z,4.18
2022-12-18T03:09:28.081Z,4.55
2022-12-18T03:11:06.558Z,3.13
2022-12-18T03:12:48.256Z,4.28
2022-12-18T03:14:24.292Z,2.85
2022-12-18T03:16:02.095Z,2.70
2022-12-18T03:17:37.144Z,3.75
2022-12-18T03:19:18.366Z,3.70
2022-12-18T03:22:32.717Z,2.10
2022-12-18T03:24:10.235Z,5.50
2022-12-18T03:25:49.322Z,3.83
2022-12-18T03:27:26.322Z,3.47
2022-12-18T03:29:10.979Z,3.65
2022-12-18T03:30:48.907Z,2.83
2022-12-18T03:32:30.574Z,3.05
2022-12-18T03:34:13.038Z,4.90
2022-12-18T03:35:50.687Z,2.67
2022-12-18T03:37:24.146Z,2.33
2022-12-18T03:38:57.862Z,3.75
2022-12-18T03:40:39.752Z,3.15
2022-12-18T03:42:23.551Z,3.40
2022-12-18T03:44:13.218Z,3.85
2022-12-18T03:45:57.932Z,3.88
2022-12-18T03:47:39.683Z,4.18
2022-12-18T03:49:25.936Z,2.72
2022-12-18T03:51:09.854Z,2.92
2022-12-18T03:52:52.320Z,4.03
2022-12-18T03:54:37.505Z,3.30
2022-12-18T03:56:20.383Z,4.05
2022-12-18T03:57:54.786Z,4.07
2022-12-18T03:59:32.185Z,2.97
2022-12-18T04:01:09.701Z,3.55
2022-12-18T04:02:51.477Z,3.25
2022-12-18T04:04:31.432Z,3.90
2022-12-18T04:06:09.314Z,3.92
2022-12-18T04:07:47.547Z,5.38
2022-12-18T04:09:22.463Z,5.25
2022-12-18T04:10:55.213Z,2.63
2022-12-18T04:12:32.200Z,3.65
2022-12-18T04:14:07.483Z,4.72
2022-12-18T04:15:42.136Z,4.00
2022-12-18T04:17:20.019Z,3.88
2022-12-18T04:18:54.010Z,3.08
2022-12-18T04:20:28.246Z,4.10
2022-12-18T04:22:00.563Z,2.88
2022-12-18T04:23:34.775Z,3.95
2022-12-18T04:25:09.047Z,3.15
2022-12-18T04:26:46.576Z,4.15
2022-12-18T04:28:23.667Z,3.28
2022-12-18T04:29:56.009Z,4.70
2022-12-18T04:31:30.820Z,3.47
2022-12-18T04:33:04.897Z,4.15
2022-12-18T04:34:38.963Z,2.97
2022-12-18T04:36:13.524Z,3.95
2022-12-18T04:37:47.533Z,2.50
2022-12-18T04:39:21.893Z,3.38
2022-12-18T04:40:57.189Z,4.40
2022-12-18T04:42:33.087Z,4.95
2022-12-18T04:44:06.786Z,4.57
2022-12-18T04:45:39.061Z,3.05
2022-12-18T04:47:15.319Z,3.65
2022-12-18T04:48:48.714Z,2.50
2022-12-18T04:50:21.837Z,4.20
2022-12-18T04:51:54.968Z,3.00
2022-12-18T04:53:28.631Z,4.28
2022-12-18T04:55:01.962Z,2.45
2022-12-18T04:56:37.881Z,2.28
2022-12-18T04:58:11.053Z,4.85
2022-12-18T04:59:44.369Z,3.72
2022-12-18T05:01:19.962Z,3.85
2022-12-18T05:02:53.646Z,3.85
2022-12-18T05:04:27.097Z,3.50
2022-12-18T05:06:00.372Z,4.20
2022-12-18T05:07:33.783Z,3.40
2022-12-18T05:09:07.087Z,3.40
2022-12-18T05:10:40.387Z,3.45
2022-12-18T05:12:14.078Z,3.22
2022-12-18T05:13:48.381Z,4.18
2022-12-18T05:15:20.574Z,3.25
2022-12-18T05:16:56.762Z,3.40
2022-12-18T05:18:36.375Z,3.63
2022-12-18T05:21:43.838Z,2.35
2022-12-18T05:23:17.433Z,1.63
2022-12-18T05:24:50.556Z,2.45
2022-12-18T05:26:23.973Z,3.65
2022-12-18T05:27:56.351Z,2.33
2022-12-18T05:29:29.934Z,2.58
2022-12-18T05:31:06.079Z,2.55
2022-12-18T05:32:38.972Z,4.25
2022-12-18T05:34:16.296Z,3.85
2022-12-18T05:35:52.709Z,1.67
2022-12-18T05:37:25.877Z,2.45
2022-12-18T05:38:59.118Z,3.17
2022-12-18T05:40:32.287Z,3.55
2022-12-18T05:42:06.504Z,3.70
2022-12-18T05:43:41.981Z,3.00
2022-12-18T05:45:14.480Z,4.13
2022-12-18T05:46:47.644Z,2.42
2022-12-18T05:48:21.364Z,3.78
2022-12-18T05:49:55.809Z,4.53
2022-12-18T05:51:29.340Z,2.40
2022-12-18T05:53:01.507Z,3.42
2022-12-18T05:54:35.067Z,4.28
2022-12-18T05:56:11.411Z,4.93
2022-12-18T05:57:44.608Z,3.25
2022-12-18T05:59:17.721Z,2.92
2022-12-18T06:00:51.250Z,2.92
2022-12-18T06:02:24.541Z,4.05
2022-12-18T06:03:57.289Z,2.88
2022-12-18T06:05:37.103Z,2.75
2022-12-18T06:07:10.397Z,4.80
2022-12-18T06:08:46.498Z,3.13
2022-12-18T06:10:20.296Z,2.22
2022-12-18T06:11:54.382Z,3.00
2022-12-18T06:13:27.568Z,3.47
2022-12-18T06:14:59.756Z,4.28
2022-12-18T06:16:34.401Z,2.65
2022-12-18T06:18:07.798Z,3.45
2022-12-18T06:19:41.080Z,4.85
2022-12-18T06:21:15.663Z,3.17
2022-12-18T06:22:49.065Z,2.47
2022-12-18T06:24:22.844Z,2.80
2022-12-18T06:25:56.258Z,4.13
2022-12-18T06:27:29.561Z,3.45
2022-12-18T06:29:04.866Z,3.60
2022-12-18T06:32:11.536Z,2.40
2022-12-18T06:33:44.678Z,2.55
2022-12-18T06:35:18.198Z,2.35
2022-12-18T06:36:53.436Z,3.92
2022-12-18T06:38:25.823Z,4.68
2022-12-18T06:39:59.072Z,3.00
2022-12-18T06:41:32.338Z,2.92
2022-12-18T06:43:05.543Z,3.88
2022-12-18T06:44:38.756Z,3.08
2022-12-18T06:46:12.247Z,3.08
2022-12-18T06:47:45.617Z,3.63
2022-12-18T06:49:18.750Z,3.15
2022-12-18T06:50:51.966Z,2.63
2022-12-18T06:52:26.519Z,2.38
2022-12-18T06:53:59.749Z,4.13
2022-12-18T06:55:32.974Z,3.05
2022-12-18T06:57:06.056Z,3.15
2022-12-18T06:58:38.733Z,3.83
2022-12-18T07:00:13.282Z,3.13
2022-12-18T07:01:49.907Z,4.63
2022-12-18T07:03:23.265Z,3.67
2022-12-18T07:04:56.442Z,2.92
2022-12-18T07:06:29.637Z,3.42
2022-12-18T07:08:04.322Z,2.85
2022-12-18T07:09:36.670Z,3.40
2022-12-18T07:11:09.910Z,4.55
2022-12-18T07:12:43.265Z,4.13
2022-12-18T07:14:16.578Z,2.83
2022-12-18T07:15:50.061Z,3.53
2022-12-18T07:17:23.291Z,3.13
2022-12-18T07:18:57.786Z,5.38
2022-12-18T07:20:30.934Z,5.93
2022-12-18T07:22:04.101Z,4.50
2022-12-18T07:23:39.959Z,3.67
2022-12-18T07:25:13.341Z,4.18
2022-12-18T07:26:48.286Z,3.75
2022-12-18T07:28:21.642Z,4.32
2022-12-18T07:29:55.902Z,4.35
2022-12-18T07:31:29.850Z,3.80
2022-12-18T07:33:03.407Z,4.07
2022-12-18T07:34:36.718Z,4.85
2022-12-18T07:36:11.983Z,3.95
2022-12-18T07:37:45.513Z,5.28
2022-12-18T07:39:20.149Z,4.40
2022-12-18T07:40:53.609Z,4.75
2022-12-18T07:42:32.719Z,5.63
2022-12-18T07:44:06.678Z,4.47
2022-12-18T07:45:39.831Z,4.82
2022-12-18T07:47:13.261Z,4.25
2022-12-18T07:48:49.827Z,3.88
2022-12-18T07:50:24.910Z,4.63
2022-12-18T07:51:58.750Z,3.40
2022-12-18T07:53:32.384Z,4.55
2022-12-18T07:55:08.095Z,4.72
2022-12-18T07:56:41.930Z,3.88
2022-12-18T07:58:15.057Z,2.85
2022-12-18T07:59:48.243Z,6.35
2022-12-18T08:01:21.564Z,3.78
2022-12-18T08:02:55.448Z,5.55
2022-12-18T08:04:28.956Z,4.28
2022-12-18T08:06:03.810Z,3.58
2022-12-18T08:07:36.901Z,4.75
2022-12-18T08:09:12.033Z,4.60
2022-12-18T08:10:48.192Z,4.03
2022-12-18T08:12:21.455Z,5.53
2022-12-18T08:13:55.610Z,4.45
2022-12-18T08:15:29.127Z,4.20
2022-12-18T08:17:02.730Z,4.70
2022-12-18T08:18:37.799Z,6.28
2022-12-18T08:20:12.429Z,5.28
2022-12-18T08:21:45.997Z,3.58
2022-12-18T08:23:19.254Z,3.78
2022-12-18T08:24:52.513Z,3.75
2022-12-18T08:26:30.436Z,3.72
2022-12-18T08:28:02.641Z,4.20
2022-12-18T08:29:35.784Z,4.70
2022-12-18T08:31:10.042Z,4.53
2022-12-18T08:32:43.659Z,4.25
2022-12-18T08:34:19.387Z,4.25
2022-12-18T08:35:52.991Z,5.95
2022-12-18T08:37:26.363Z,4.53
2022-12-18T08:38:59.657Z,4.75
2022-12-18T08:40:34.074Z,4.32
2022-12-18T08:42:26.177Z,6.57
2022-12-18T08:44:16.799Z,3.92
2022-12-18T08:45:50.113Z,5.60
2022-12-18T08:47:23.716Z,4.15
2022-12-18T08:48:57.314Z,5.30
2022-12-18T08:50:30.541Z,4.65
2022-12-18T08:52:04.173Z,4.60
2022-12-18T08:53:38.351Z,5.38
2022-12-18T08:55:12.124Z,4.05
2022-12-18T08:56:45.361Z,4.43
2022-12-18T08:58:20.739Z,6.70
2022-12-18T08:59:53.870Z,4.47
2022-12-18T09:01:27.192Z,4.63
2022-12-18T09:03:00.674Z,3.75
2022-12-18T09:04:34.119Z,3.67
2022-12-18T09:06:08.566Z,6.57
2022-12-18T09:07:41.728Z,4.43
2022-12-18T09:09:15.137Z,7.32
2022-12-18T09:10:52.048Z,4.43
2022-12-18T09:12:25.357Z,4.82
2022-12-18T09:14:01.801Z,6.28
2022-12-18T09:15:35.219Z,5.90
2022-12-18T09:17:08.507Z,7.32
2022-12-18T09:18:42.524Z,5.03
2022-12-18T09:20:16.184Z,6.03
2022-12-18T09:21:49.984Z,5.93
2022-12-18T09:23:23.622Z,6.53
2022-12-18T09:24:57.011Z,5.78
2022-12-18T09:26:30.229Z,6.55
2022-12-18T09:28:04.733Z,7.38
2022-12-18T09:29:39.333Z,6.00
2022-12-18T09:31:15.053Z,4.43
2022-12-18T09:32:48.630Z,4.57
2022-12-18T09:34:22.709Z,4.70
2022-12-18T09:35:55.858Z,5.05
2022-12-18T09:37:28.975Z,6.07
2022-12-18T09:39:07.551Z,3.97
2022-12-18T09:40:46.333Z,5.63
2022-12-18T09:42:23.784Z,4.78
2022-12-18T09:44:03.351Z,5.97
2022-12-18T09:45:46.028Z,5.60
2022-12-18T09:47:25.655Z,7.53
2022-12-18T09:49:05.940Z,4.22
2022-12-18T09:50:42.417Z,4.30
2022-12-18T09:52:23.515Z,5.68
2022-12-18T09:54:03.642Z,6.55
2022-12-18T09:55:42.128Z,20.13
2022-12-18T09:57:20.382Z,8.00
2022-12-18T09:59:00.926Z,6.63
2022-12-18T10:00:34.241Z,56.60
2022-12-18T10:02:22.481Z,105.40
2022-12-18T10:03:57.232Z,98.97
2022-12-18T10:05:42.972Z,29.02
2022-12-18T10:07:23.504Z,37.22
2022-12-18T10:09:07.301Z,16.52
2022-12-18T10:10:50.538Z,147.88
2022-12-18T10:12:32.884Z,68.28
2022-12-18T10:14:19.004Z,135.50
2022-12-18T10:16:11.647Z,19.67
2022-12-18T10:17:53.628Z,77.43
2022-12-18T10:19:42.117Z,18.15
2022-12-18T10:21:22.295Z,76.45
2022-12-18T10:23:05.063Z,21.63
2022-12-18T10:24:46.970Z,79.68
2022-12-18T10:26:20.997Z,21.52
2022-12-18T10:28:00.151Z,17.70
2022-12-18T10:29:33.497Z,15.98
2022-12-18T10:31:07.916Z,9.02
2022-12-18T10:32:41.977Z,8.07
2022-12-18T10:34:16.788Z,6.85
2022-12-18T10:35:53.789Z,7.57
2022-12-18T10:37:29.866Z,6.32
2022-12-18T10:39:18.455Z,7.47
2022-12-18T10:40:55.130Z,7.70
2022-12-18T10:42:28.486Z,59.30
2022-12-18T10:44:17.963Z,13.95
2022-12-18T10:46:17.968Z,67.88
2022-12-18T10:47:52.132Z,142.77
2022-12-18T10:49:30.718Z,46.83
2022-12-18T10:51:13.708Z,58.55
2022-12-18T10:52:58.473Z,29.00
2022-12-18T10:54:34.719Z,16.13
2022-12-18T10:56:09.102Z,10.00
2022-12-18T10:57:42.794Z,8.77
2022-12-18T10:59:19.531Z,5.55
2022-12-18T11:01:13.072Z,5.13
2022-12-18T11:02:46.622Z,4.60
2022-12-18T11:04:24.359Z,5.40
2022-12-18T11:06:08.940Z,3.72
2022-12-18T11:07:54.636Z,5.00
2022-12-18T11:09:32.437Z,3.15
2022-12-18T11:11:18.094Z,4.65
2022-12-18T11:12:51.815Z,5.50
2022-12-18T11:14:29.132Z,3.15
2022-12-18T11:16:02.547Z,3.40
2022-12-18T11:17:38.042Z,3.22
2022-12-18T11:19:34.840Z,3.85
2022-12-18T11:21:13.564Z,2.33
2022-12-18T11:22:59.367Z,4.65
2022-12-18T11:24:35.860Z,3.35
2022-12-18T11:26:12.061Z,3.38
2022-12-18T11:27:50.367Z,3.72
2022-12-18T11:29:34.060Z,3.67
2022-12-18T11:31:25.817Z,2.92
2022-12-18T11:33:07.845Z,3.45
2022-12-18T11:34:45.778Z,2.90
2022-12-18T11:36:23.574Z,4.18
2022-12-18T11:38:04.739Z,3.72
2022-12-18T11:39:44.824Z,3.95
2022-12-18T11:41:49.773Z,4.05
2022-12-18T11:43:31.639Z,4.18
2022-12-18T11:45:29.910Z,4.20
2022-12-18T11:48:51.447Z,3.25
2022-12-18T11:50:31.713Z,3.17
2022-12-18T11:52:19.021Z,2.42
2022-12-18T11:53:53.992Z,3.17
2022-12-18T11:55:43.981Z,2.50
2022-12-18T11:57:36.489Z,3.97
2022-12-18T12:01:08.245Z,2.45
2022-12-18T12:03:14.136Z,3.53
2022-12-18T12:05:02.862Z,4.72
2022-12-18T12:06:50.352Z,4.30
2022-12-18T12:08:42.570Z,3.15
2022-12-18T12:10:40.851Z,4.53
2022-12-18T12:12:48.713Z,2.28
2022-12-18T12:14:45.682Z,5.68
2022-12-18T12:16:30.367Z,3.95
2022-12-18T12:18:16.055Z,2.85
2022-12-18T12:20:01.238Z,4.25
2022-12-18T12:21:42.468Z,4.13
2022-12-18T12:23:29.729Z,2.95
2022-12-18T12:25:28.232Z,3.38
2022-12-18T12:27:18.755Z,3.33
2022-12-18T12:29:15.500Z,3.22
2022-12-18T12:31:07.816Z,4.95
2022-12-18T12:33:06.495Z,4.43
2022-12-18T12:35:00.948Z,3.45
2022-12-18T12:36:50.492Z,4.93
2022-12-18T12:38:32.964Z,4.82
2022-12-18T12:40:49.143Z,3.58
2022-12-18T12:42:38.702Z,4.60
2022-12-18T12:44:27.794Z,5.25
2022-12-18T12:46:07.531Z,5.45
2022-12-18T12:47:47.196Z,3.92
2022-12-18T12:49:27.587Z,4.90
2022-12-18T12:51:03.746Z,5.15
2022-12-18T12:52:44.438Z,3.38
2022-12-18T12:54:25.563Z,4.90
2022-12-18T12:56:00.156Z,6.75
2022-12-18T12:57:40.864Z,4.47
2022-12-18T12:59:25.306Z,5.85
2022-12-18T13:01:12.000Z,4.40
2022-12-18T13:02:54.849Z,5.97
2022-12-18T13:04:40.322Z,4.97
2022-12-18T13:06:30.506Z,4.72
2022-12-18T13:08:08.342Z,4.93
2022-12-18T13:12:00.717Z,5.25
2022-12-18T13:13:52.082Z,5.45
2022-12-18T13:15:35.095Z,4.47
2022-12-18T13:17:31.992Z,5.03
2022-12-18T13:19:05.429Z,4.75
2022-12-18T13:20:42.545Z,6.40
2022-12-18T13:22:26.314Z,4.55
2022-12-18T13:24:22.573Z,5.30
2022-12-18T13:25:58.298Z,5.03
2022-12-18T13:28:13.598Z,5.57
2022-12-18T13:29:48.425Z,5.65
2022-12-18T13:32:01.914Z,5.68
2022-12-18T13:34:24.349Z,8.07
2022-12-18T13:35:42.949Z,5.03
2022-12-18T13:37:43.277Z,6.25
2022-12-18T13:39:37.270Z,5.97
2022-12-18T13:41:26.676Z,6.78
2022-12-18T13:43:16.048Z,5.53
2022-12-18T13:44:49.690Z,8.90
2022-12-18T13:46:30.362Z,6.78
2022-12-18T13:48:04.247Z,7.15
2022-12-18T13:49:41.705Z,7.45
2022-12-18T13:51:21.516Z,6.40
2022-12-18T13:52:55.890Z,6.75
2022-12-18T13:54:37.771Z,7.80
2022-12-18T13:56:11.067Z,6.28
2022-12-18T13:57:44.778Z,7.22
2022-12-18T13:59:25.081Z,9.07
2022-12-18T14:01:02.423Z,7.97
2022-12-18T14:02:35.817Z,9.18
2022-12-18T14:04:14.576Z,7.32
2022-12-18T14:05:58.453Z,7.60
2022-12-18T14:07:34.592Z,6.85
2022-12-18T14:09:21.826Z,7.43
2022-12-18T14:10:55.253Z,8.35
2022-12-18T14:12:49.129Z,10.32
2022-12-18T14:14:29.472Z,7.22
2022-12-18T14:16:09.812Z,12.02
2022-12-18T14:17:45.262Z,9.75
2022-12-18T14:19:20.423Z,7.88
2022-12-18T14:22:30.519Z,7.97
2022-12-18T14:24:19.457Z,8.82
2022-12-18T14:25:53.113Z,9.18
2022-12-18T14:27:28.288Z,7.45
2022-12-18T14:29:03.755Z,7.55
2022-12-18T14:30:42.031Z,9.48
2022-12-18T14:32:19.336Z,7.43
2022-12-18T14:33:54.088Z,8.68
2022-12-18T14:35:27.579Z,9.25
2022-12-18T14:37:01.751Z,8.68
2022-12-18T14:38:37.614Z,9.23
2022-12-18T14:40:15.974Z,8.30
2022-12-18T14:41:51.331Z,7.85
2022-12-18T14:43:25.171Z,9.25
2022-12-18T14:45:43.155Z,9.65
2022-12-18T14:47:18.448Z,9.48
2022-12-18T14:48:51.635Z,8.07
2022-12-18T14:50:25.221Z,8.60
2022-12-18T14:52:00.975Z,6.70
2022-12-18T14:53:42.362Z,8.45
2022-12-18T14:55:18.698Z,8.45
2022-12-18T14:57:00.083Z,8.02
2022-12-18T14:58:33.708Z,8.75
2022-12-18T15:00:17.162Z,8.25
2022-12-18T15:02:05.883Z,9.35
2022-12-18T15:03:46.203Z,8.02
2022-12-18T15:05:26.380Z,8.23
2022-12-18T15:07:17.009Z,9.20
2022-12-18T15:08:52.088Z,10.45
2022-12-18T15:10:28.376Z,9.75
2022-12-18T15:12:03.334Z,9.05
2022-12-18T15:13:36.707Z,8.13
2022-12-18T15:15:46.641Z,10.23
2022-12-18T15:17:24.759Z,9.10
2022-12-18T15:19:00.046Z,12.00
2022-12-18T15:20:41.013Z,8.48
2022-12-18T15:22:28.086Z,9.90
2022-12-18T15:24:01.468Z,10.63
2022-12-18T15:25:38.893Z,8.98
2022-12-18T15:27:25.008Z,10.07
2022-12-18T15:29:00.852Z,9.63
2022-12-18T15:30:34.101Z,10.07
2022-12-18T15:32:23.182Z,10.68
2022-12-18T15:34:16.060Z,9.75
2022-12-18T15:35:58.406Z,8.52
2022-12-18T15:37:32.081Z,8.85
2022-12-18T15:39:06.687Z,10.35
2022-12-18T15:42:31.211Z,9.60
2022-12-18T15:44:17.950Z,11.40
2022-12-18T15:45:51.387Z,10.60
2022-12-18T15:47:26.099Z,9.70
2022-12-18T15:49:02.697Z,12.75
2022-12-18T15:50:36.422Z,10.70
2022-12-18T15:52:26.630Z,11.48
2022-12-18T15:54:04.636Z,12.68
2022-12-18T15:56:00.889Z,9.52
2022-12-18T15:57:33.719Z,9.35
2022-12-18T15:59:12.191Z,10.85
2022-12-18T16:00:45.467Z,11.35
2022-12-18T16:02:24.016Z,10.45
2022-12-18T16:03:59.228Z,10.00
2022-12-18T16:05:34.135Z,10.80
2022-12-18T16:07:22.858Z,12.02
2022-12-18T16:08:58.534Z,11.20
2022-12-18T16:10:32.053Z,12.18
2022-12-18T16:12:06.656Z,12.80
2022-12-18T16:13:40.240Z,11.75
2022-12-18T16:15:22.514Z,12.07
2022-12-18T16:17:01.062Z,11.57
2022-12-18T16:18:34.407Z,12.10
2022-12-18T16:20:15.882Z,11.82
2022-12-18T16:21:51.296Z,10.95
2022-12-18T16:23:25.302Z,11.13
2022-12-18T16:25:00.194Z,13.63
2022-12-18T16:26:34.462Z,11.95
2022-12-18T16:28:07.680Z,12.88
2022-12-18T16:29:40.905Z,13.35
2022-12-18T16:31:14.126Z,13.10
2022-12-18T16:32:47.966Z,16.40
2022-12-18T16:34:26.841Z,12.75
2022-12-18T16:37:36.811Z,13.07
2022-12-18T16:39:09.970Z,11.25
2022-12-18T16:41:03.780Z,13.68
2022-12-18T16:42:38.593Z,11.85
2022-12-18T16:44:12.867Z,11.32
2022-12-18T16:45:46.022Z,11.23
2022-12-18T16:47:27.438Z,14.38
2022-12-18T16:49:01.528Z,13.30
2022-12-18T16:50:34.657Z,13.30
2022-12-18T16:52:09.785Z,12.80
2022-12-18T16:53:43.186Z,12.05
2022-12-18T16:55:17.969Z,12.82
2022-12-18T16:56:53.108Z,13.52
2022-12-18T16:58:26.462Z,13.60
2022-12-18T17:00:04.733Z,13.07
2022-12-18T17:01:38.736Z,14.10
2022-12-18T17:03:12.288Z,10.88
2022-12-18T17:04:46.832Z,13.35
2022-12-18T17:06:20.058Z,13.43
2022-12-18T17:07:54.854Z,13.63
2022-12-18T17:09:28.313Z,15.02
2022-12-18T17:11:06.359Z,11.43
2022-12-18T17:12:39.698Z,16.95
2022-12-18T17:14:17.606Z,14.60
2022-12-18T17:15:51.352Z,14.88
2022-12-18T17:17:24.695Z,14.85
2022-12-18T17:18:57.824Z,14.75
2022-12-18T17:20:32.017Z,14.45
2022-12-18T17:22:05.778Z,14.07
2022-12-18T17:23:40.768Z,13.35
2022-12-18T17:25:15.600Z,14.73
2022-12-18T17:26:52.575Z,14.82
2022-12-18T17:28:29.859Z,14.23
2022-12-18T17:30:03.204Z,13.13
2022-12-18T17:31:36.756Z,13.27
2022-12-18T17:33:11.005Z,14.85
2022-12-18T17:34:44.517Z,15.18
2022-12-18T17:36:18.605Z,17.42
2022-12-18T17:37:52.395Z,14.10
2022-12-18T17:39:28.588Z,14.82
2022-12-18T17:41:03.225Z,15.35
2022-12-18T17:42:36.407Z,13.65
2022-12-18T17:44:11.631Z,13.25
2022-12-18T17:45:47.182Z,16.67
2022-12-18T17:47:20.408Z,16.45
2022-12-18T17:48:56.508Z,14.68
2022-12-18T17:50:29.605Z,16.98
2022-12-18T17:52:02.858Z,14.98
2022-12-18T17:53:39.423Z,14.52
2022-12-18T17:55:15.844Z,16.25
2022-12-18T17:58:23.702Z,14.93
2022-12-18T17:59:57.107Z,15.82
2022-12-18T18:01:30.414Z,14.80
2022-12-18T18:03:05.154Z,13.90
2022-12-18T18:04:38.446Z,13.77
2022-12-18T18:06:12.923Z,17.27
2022-12-18T18:07:46.405Z,14.90
2022-12-18T18:09:20.531Z,13.88
2022-12-18T18:11:15.986Z,17.40
2022-12-18T18:13:07.627Z,16.73
2022-12-18T18:14:39.893Z,13.98
2022-12-18T18:16:13.547Z,15.27
2022-12-18T18:17:46.770Z,15.70
2022-12-18T18:19:23.176Z,16.40
2022-12-18T18:20:56.758Z,16.80
2022-12-18T18:22:30.872Z,15.27
2022-12-18T18:24:05.487Z,14.90
2022-12-18T18:25:38.596Z,15.90
2022-12-18T18:27:13.505Z,15.68
2022-12-18T18:28:46.883Z,16.27
2022-12-18T18:30:20.663Z,17.30
2022-12-18T18:31:54.216Z,16.50
2022-12-18T18:33:27.857Z,18.50
2022-12-18T18:35:01.012Z,14.35
2022-12-18T18:36:34.105Z,16.80
2022-12-18T18:38:08.386Z,16.38
2022-12-18T18:39:42.024Z,16.40
2022-12-18T18:41:15.802Z,15.75
2022-12-18T18:42:50.248Z,15.38
2022-12-18T18:44:25.999Z,18.63
2022-12-18T18:46:01.453Z,17.52
2022-12-18T18:49:08.894Z,17.80
2022-12-18T18:50:45.606Z,17.05
2022-12-18T18:52:18.743Z,17.25
2022-12-18T18:53:54.475Z,18.05
2022-12-18T18:55:27.648Z,17.27
2022-12-18T18:57:20.028Z,19.63
2022-12-18T18:58:56.744Z,17.23
2022-12-18T19:00:29.979Z,16.98
2022-12-18T19:02:04.191Z,19.20
2022-12-18T19:03:41.382Z,17.77
2022-12-18T19:05:16.072Z,18.83
2022-12-18T19:06:50.006Z,17.35
2022-12-18T19:08:26.080Z,18.80
2022-12-18T19:10:03.525Z,15.95
2022-12-18T19:11:56.851Z,18.33
2022-12-18T19:13:34.277Z,17.13
2022-12-18T19:15:10.878Z,17.25
2022-12-18T19:16:47.350Z,17.35
2022-12-18T19:18:21.226Z,17.45
2022-12-18T19:19:54.497Z,18.25
2022-12-18T19:21:28.302Z,17.08
2022-12-18T19:23:04.246Z,17.30
2022-12-18T19:24:37.942Z,17.83
2022-12-18T19:26:28.957Z,16.60
2022-12-18T19:28:02.691Z,16.60
2022-12-18T19:29:38.979Z,18.75
2022-12-18T19:31:24.200Z,18.08
2022-12-18T19:33:05.473Z,18.25
2022-12-18T19:34:48.062Z,17.23
2022-12-18T19:36:25.262Z,18.45
2022-12-18T19:37:58.556Z,15.38
2022-12-18T19:39:31.951Z,17.45
2022-12-18T19:41:08.533Z,17.17
2022-12-18T19:42:41.837Z,16.70
2022-12-18T19:44:18.063Z,15.48
2022-12-18T19:45:56.340Z,17.95
2022-12-18T19:47:30.982Z,19.25
2022-12-18T19:49:04.698Z,18.33
2022-12-18T19:50:42.697Z,15.80
2022-12-18T19:52:16.343Z,20.45
2022-12-18T19:53:55.101Z,16.20
2022-12-18T19:55:31.893Z,16.88
2022-12-18T19:57:07.947Z,18.35
2022-12-18T19:58:42.353Z,16.75
2022-12-18T20:00:18.833Z,16.00
2022-12-18T20:01:54.228Z,16.45
2022-12-18T20:03:32.498Z,18.77
2022-12-18T20:05:12.175Z,16.50
2022-12-18T20:06:51.231Z,15.75
2022-12-18T20:08:24.601Z,17.33
2022-12-18T20:10:05.396Z,15.65
2022-12-18T20:11:42.983Z,17.70
2022-12-18T20:13:16.446Z,17.27
2022-12-18T20:14:49.601Z,19.25
2022-12-18T20:16:23.153Z,20.20
2022-12-18T20:17:56.440Z,16.75
2022-12-18T20:19:32.239Z,16.58
2022-12-18T20:21:13.686Z,16.17
2022-12-18T20:22:47.486Z,19.67
2022-12-18T20:24:21.071Z,17.20
2022-12-18T20:25:55.392Z,17.60
2022-12-18T20:27:28.604Z,19.13
2022-12-18T20:29:01.958Z,16.60
2022-12-18T20:30:35.427Z,18.58
2022-12-18T20:32:09.087Z,17.50
2022-12-18T20:33:43.585Z,16.85
2022-12-18T20:35:23.160Z,21.77
2022-12-18T20:36:57.063Z,17.63
2022-12-18T20:38:31.991Z,18.55
2022-12-18T20:40:07.588Z,16.48
2022-12-18T20:41:41.627Z,17.75
2022-12-18T20:43:17.291Z,18.85
2022-12-18T20:44:51.235Z,18.13
2022-12-18T20:46:25.727Z,17.73
2022-12-18T20:48:00.780Z,17.33
2022-12-18T20:51:11.921Z,14.48
2022-12-18T20:52:45.060Z,16.90
2022-12-18T20:54:19.541Z,20.05
2022-12-18T20:55:52.829Z,18.20
2022-12-18T20:57:29.164Z,18.50
2022-12-18T20:59:02.418Z,16.65
2022-12-18T21:00:35.675Z,16.88
2022-12-18T21:02:11.389Z,17.17
2022-12-18T21:03:46.392Z,16.77
2022-12-18T21:05:20.065Z,17.77
2022-12-18T21:06:59.165Z,18.60
2022-12-18T21:08:35.916Z,17.17
2022-12-18T21:10:10.674Z,13.73
2022-12-18T21:12:01.579Z,17.88
2022-12-18T21:13:34.878Z,16.85
2022-12-18T21:15:11.105Z,18.15
2022-12-18T21:16:44.086Z,17.40
2022-12-18T21:18:17.601Z,16.10
2022-12-18T21:19:50.724Z,17.05
2022-12-18T21:21:27.037Z,17.27
2022-12-18T21:23:02.328Z,15.80
2022-12-18T21:24:49.762Z,15.63
2022-12-18T21:26:26.733Z,17.50
2022-12-18T21:27:59.883Z,14.45
2022-12-18T21:29:34.748Z,18.58
2022-12-18T21:31:07.899Z,15.95
2022-12-18T21:32:44.451Z,17.95
2022-12-18T21:34:20.317Z,15.70
2022-12-18T21:35:53.721Z,14.50
2022-12-18T21:37:26.919Z,16.13
2022-12-18T21:39:02.048Z,16.08
2022-12-18T21:40:35.302Z,17.13
2022-12-18T21:42:29.828Z,17.95
2022-12-18T21:44:08.274Z,17.70
2022-12-18T21:45:41.500Z,16.25
2022-12-18T21:47:22.829Z,16.60
2022-12-18T21:48:56.351Z,17.05